sensor_id;sensor_type;location;lat;lon;timestamp;P1;durP1;ratioP1;P2;durP2;ratioP2
20324;SDS011;10320;49.482;11.256;2023-05-15T00:00:12;8.10;;;7.37;;
20324;SDS011;10320;49.482;11.256;2023-05-15T00:02:38;8.50;;;7.57;;
20324;SDS011;10320;49.482;11.256;2023-05-15T00:05:04;8.20;;;7.40;;
20324;SDS011;10320;49.482;11.256;2023-05-15T00:07:32;8.53;;;7.83;;
20324;SDS011;10320;49.482;11.256;2023-05-15T00:09:58;9.30;;;8.33;;
20324;SDS011;10320;49.482;11.256;2023-05-15T00:12:24;8.43;;;7.63;;
20324;SDS011;10320;49.482;11.256;2023-05-15T00:14:50;8.40;;;7.70;;
20324;SDS011;10320;49.482;11.256;2023-05-15T00:17:16;9.00;;;8.17;;
20324;SDS011;10320;49.482;11.256;2023-05-15T00:19:42;9.07;;;8.23;;
20324;SDS011;10320;49.482;11.256;2023-05-15T00:22:08;8.40;;;7.70;;
20324;SDS011;10320;49.482;11.256;2023-05-15T00:24:34;9.07;;;8.17;;
20324;SDS011;10320;49.482;11.256;2023-05-15T00:27:00;9.67;;;8.67;;
20324;SDS011;10320;49.482;11.256;2023-05-15T00:29:27;9.43;;;8.53;;
20324;SDS011;10320;49.482;11.256;2023-05-15T00:31:53;9.03;;;8.20;;
20324;SDS011;10320;49.482;11.256;2023-05-15T00:34:20;8.93;;;8.13;;
20324;SDS011;10320;49.482;11.256;2023-05-15T00:36:46;8.93;;;7.63;;
20324;SDS011;10320;49.482;11.256;2023-05-15T00:39:12;8.73;;;7.93;;
20324;SDS011;10320;49.482;11.256;2023-05-15T00:41:38;9.47;;;8.37;;
20324;SDS011;10320;49.482;11.256;2023-05-15T00:44:05;8.67;;;7.77;;
20324;SDS011;10320;49.482;11.256;2023-05-15T00:46:31;7.90;;;7.30;;
20324;SDS011;10320;49.482;11.256;2023-05-15T00:48:57;8.43;;;7.63;;
20324;SDS011;10320;49.482;11.256;2023-05-15T00:51:24;8.47;;;7.77;;
20324;SDS011;10320;49.482;11.256;2023-05-15T00:53:50;8.43;;;7.73;;
20324;SDS011;10320;49.482;11.256;2023-05-15T00:56:18;7.50;;;6.80;;
20324;SDS011;10320;49.482;11.256;2023-05-15T00:58:45;7.97;;;7.17;;
20324;SDS011;10320;49.482;11.256;2023-05-15T01:01:15;8.47;;;7.67;;
20324;SDS011;10320;49.482;11.256;2023-05-15T01:03:42;7.87;;;7.10;;
20324;SDS011;10320;49.482;11.256;2023-05-15T01:06:08;8.00;;;7.20;;
20324;SDS011;10320;49.482;11.256;2023-05-15T01:08:41;8.40;;;7.60;;
20324;SDS011;10320;49.482;11.256;2023-05-15T01:11:08;8.27;;;7.57;;
20324;SDS011;10320;49.482;11.256;2023-05-15T01:13:34;8.37;;;7.57;;
20324;SDS011;10320;49.482;11.256;2023-05-15T01:16:00;8.23;;;7.53;;
20324;SDS011;10320;49.482;11.256;2023-05-15T01:18:26;8.63;;;7.83;;
20324;SDS011;10320;49.482;11.256;2023-05-15T01:23:55;8.00;;;7.30;;
20324;SDS011;10320;49.482;11.256;2023-05-15T01:28:56;8.67;;;7.60;;
20324;SDS011;10320;49.482;11.256;2023-05-15T01:31:23;8.43;;;7.57;;
20324;SDS011;10320;49.482;11.256;2023-05-15T01:33:54;8.97;;;7.77;;
20324;SDS011;10320;49.482;11.256;2023-05-15T01:36:23;7.77;;;7.17;;
20324;SDS011;10320;49.482;11.256;2023-05-15T01:38:52;8.77;;;7.77;;
20324;SDS011;10320;49.482;11.256;2023-05-15T01:41:23;8.07;;;7.37;;
20324;SDS011;10320;49.482;11.256;2023-05-15T01:46:48;9.20;;;8.30;;
20324;SDS011;10320;49.482;11.256;2023-05-15T01:49:15;8.83;;;8.13;;
20324;SDS011;10320;49.482;11.256;2023-05-15T01:51:42;8.80;;;7.70;;
20324;SDS011;10320;49.482;11.256;2023-05-15T01:54:09;9.17;;;8.27;;
20324;SDS011;10320;49.482;11.256;2023-05-15T01:56:35;8.40;;;7.70;;
20324;SDS011;10320;49.482;11.256;2023-05-15T01:59:02;9.40;;;8.50;;
20324;SDS011;10320;49.482;11.256;2023-05-15T02:01:30;8.93;;;8.13;;
20324;SDS011;10320;49.482;11.256;2023-05-15T02:03:57;9.43;;;8.50;;
20324;SDS011;10320;49.482;11.256;2023-05-15T02:06:24;8.70;;;8.00;;
20324;SDS011;10320;49.482;11.256;2023-05-15T02:08:50;7.80;;;7.20;;
20324;SDS011;10320;49.482;11.256;2023-05-15T02:11:17;8.37;;;7.67;;
20324;SDS011;10320;49.482;11.256;2023-05-15T02:13:44;8.00;;;7.30;;
20324;SDS011;10320;49.482;11.256;2023-05-15T02:16:10;9.00;;;8.13;;
20324;SDS011;10320;49.482;11.256;2023-05-15T02:18:36;8.77;;;7.90;;
20324;SDS011;10320;49.482;11.256;2023-05-15T02:21:03;8.50;;;7.80;;
20324;SDS011;10320;49.482;11.256;2023-05-15T02:23:29;9.50;;;8.70;;
20324;SDS011;10320;49.482;11.256;2023-05-15T02:28:49;9.07;;;8.30;;
20324;SDS011;10320;49.482;11.256;2023-05-15T02:31:37;8.87;;;8.10;;
20324;SDS011;10320;49.482;11.256;2023-05-15T02:36:49;9.67;;;8.80;;
20324;SDS011;10320;49.482;11.256;2023-05-15T02:39:16;9.30;;;8.47;;
20324;SDS011;10320;49.482;11.256;2023-05-15T02:41:43;9.17;;;8.27;;
20324;SDS011;10320;49.482;11.256;2023-05-15T02:44:10;9.60;;;8.60;;
20324;SDS011;10320;49.482;11.256;2023-05-15T02:46:37;9.00;;;8.20;;
20324;SDS011;10320;49.482;11.256;2023-05-15T02:49:03;8.73;;;7.93;;
20324;SDS011;10320;49.482;11.256;2023-05-15T02:51:29;9.10;;;8.20;;
20324;SDS011;10320;49.482;11.256;2023-05-15T02:53:56;9.23;;;8.47;;
20324;SDS011;10320;49.482;11.256;2023-05-15T02:56:25;8.90;;;8.20;;
20324;SDS011;10320;49.482;11.256;2023-05-15T02:58:51;8.63;;;7.90;;
20324;SDS011;10320;49.482;11.256;2023-05-15T03:01:17;8.80;;;8.00;;
20324;SDS011;10320;49.482;11.256;2023-05-15T03:03:43;8.67;;;7.87;;
20324;SDS011;10320;49.482;11.256;2023-05-15T03:06:09;9.03;;;8.17;;
20324;SDS011;10320;49.482;11.256;2023-05-15T03:08:35;8.63;;;7.77;;
20324;SDS011;10320;49.482;11.256;2023-05-15T03:11:01;8.60;;;7.80;;
20324;SDS011;10320;49.482;11.256;2023-05-15T03:13:27;8.20;;;7.30;;
20324;SDS011;10320;49.482;11.256;2023-05-15T03:15:53;8.87;;;8.07;;
20324;SDS011;10320;49.482;11.256;2023-05-15T03:18:19;9.07;;;8.27;;
20324;SDS011;10320;49.482;11.256;2023-05-15T03:20:48;9.77;;;8.43;;
20324;SDS011;10320;49.482;11.256;2023-05-15T03:23:15;9.80;;;8.93;;
20324;SDS011;10320;49.482;11.256;2023-05-15T03:25:40;10.47;;;9.47;;
20324;SDS011;10320;49.482;11.256;2023-05-15T03:28:06;10.23;;;9.27;;
20324;SDS011;10320;49.482;11.256;2023-05-15T03:30:33;9.87;;;8.87;;
20324;SDS011;10320;49.482;11.256;2023-05-15T03:32:59;9.90;;;9.00;;
20324;SDS011;10320;49.482;11.256;2023-05-15T03:35:27;9.70;;;8.90;;
20324;SDS011;10320;49.482;11.256;2023-05-15T03:37:53;9.63;;;8.63;;
20324;SDS011;10320;49.482;11.256;2023-05-15T03:40:19;9.67;;;8.70;;
20324;SDS011;10320;49.482;11.256;2023-05-15T03:42:45;10.63;;;9.53;;
20324;SDS011;10320;49.482;11.256;2023-05-15T03:45:11;10.87;;;9.87;;
20324;SDS011;10320;49.482;11.256;2023-05-15T03:47:37;10.03;;;9.07;;
20324;SDS011;10320;49.482;11.256;2023-05-15T03:50:03;9.97;;;9.03;;
20324;SDS011;10320;49.482;11.256;2023-05-15T03:52:30;11.17;;;10.07;;
20324;SDS011;10320;49.482;11.256;2023-05-15T03:54:56;11.23;;;10.00;;
20324;SDS011;10320;49.482;11.256;2023-05-15T03:57:22;10.20;;;9.30;;
20324;SDS011;10320;49.482;11.256;2023-05-15T03:59:48;11.10;;;10.00;;
20324;SDS011;10320;49.482;11.256;2023-05-15T04:02:14;12.03;;;10.07;;
20324;SDS011;10320;49.482;11.256;2023-05-15T04:04:40;10.43;;;9.37;;
20324;SDS011;10320;49.482;11.256;2023-05-15T04:07:06;10.97;;;9.97;;
20324;SDS011;10320;49.482;11.256;2023-05-15T04:09:32;11.80;;;10.60;;
20324;SDS011;10320;49.482;11.256;2023-05-15T04:11:58;10.97;;;9.83;;
20324;SDS011;10320;49.482;11.256;2023-05-15T04:14:24;10.80;;;9.70;;
20324;SDS011;10320;49.482;11.256;2023-05-15T04:16:50;10.77;;;9.77;;
20324;SDS011;10320;49.482;11.256;2023-05-15T04:19:16;11.47;;;10.33;;
20324;SDS011;10320;49.482;11.256;2023-05-15T04:21:42;10.77;;;9.67;;
20324;SDS011;10320;49.482;11.256;2023-05-15T04:24:08;10.63;;;9.60;;
20324;SDS011;10320;49.482;11.256;2023-05-15T04:26:34;9.97;;;9.07;;
20324;SDS011;10320;49.482;11.256;2023-05-15T04:29:00;9.83;;;8.87;;
20324;SDS011;10320;49.482;11.256;2023-05-15T04:31:27;10.10;;;9.23;;
20324;SDS011;10320;49.482;11.256;2023-05-15T04:33:53;10.10;;;9.20;;
20324;SDS011;10320;49.482;11.256;2023-05-15T04:36:19;9.77;;;8.80;;
20324;SDS011;10320;49.482;11.256;2023-05-15T04:38:46;10.10;;;9.07;;
20324;SDS011;10320;49.482;11.256;2023-05-15T04:41:12;10.20;;;9.30;;
20324;SDS011;10320;49.482;11.256;2023-05-15T04:43:38;10.37;;;9.53;;
20324;SDS011;10320;49.482;11.256;2023-05-15T04:46:04;10.53;;;9.43;;
20324;SDS011;10320;49.482;11.256;2023-05-15T04:48:30;10.40;;;9.33;;
20324;SDS011;10320;49.482;11.256;2023-05-15T04:50:56;10.17;;;9.07;;
20324;SDS011;10320;49.482;11.256;2023-05-15T04:53:22;9.53;;;8.73;;
20324;SDS011;10320;49.482;11.256;2023-05-15T04:55:48;10.30;;;9.40;;
20324;SDS011;10320;49.482;11.256;2023-05-15T04:58:15;11.73;;;10.63;;
20324;SDS011;10320;49.482;11.256;2023-05-15T05:00:41;11.20;;;10.20;;
20324;SDS011;10320;49.482;11.256;2023-05-15T05:03:07;11.27;;;10.17;;
20324;SDS011;10320;49.482;11.256;2023-05-15T05:05:33;10.17;;;9.17;;
20324;SDS011;10320;49.482;11.256;2023-05-15T05:07:59;11.03;;;9.57;;
20324;SDS011;10320;49.482;11.256;2023-05-15T05:10:26;10.47;;;9.40;;
20324;SDS011;10320;49.482;11.256;2023-05-15T05:12:52;9.80;;;8.93;;
20324;SDS011;10320;49.482;11.256;2023-05-15T05:15:18;10.30;;;9.37;;
20324;SDS011;10320;49.482;11.256;2023-05-15T05:17:44;11.07;;;10.07;;
20324;SDS011;10320;49.482;11.256;2023-05-15T05:20:10;10.83;;;9.87;;
20324;SDS011;10320;49.482;11.256;2023-05-15T05:22:37;11.10;;;10.00;;
20324;SDS011;10320;49.482;11.256;2023-05-15T05:27:55;11.00;;;10.00;;
20324;SDS011;10320;49.482;11.256;2023-05-15T05:30:21;10.77;;;9.77;;
20324;SDS011;10320;49.482;11.256;2023-05-15T05:32:47;10.87;;;9.97;;
20324;SDS011;10320;49.482;11.256;2023-05-15T05:35:13;10.73;;;9.77;;
20324;SDS011;10320;49.482;11.256;2023-05-15T05:37:39;10.50;;;9.37;;
20324;SDS011;10320;49.482;11.256;2023-05-15T05:40:05;11.57;;;10.47;;
20324;SDS011;10320;49.482;11.256;2023-05-15T05:42:32;10.60;;;9.63;;
20324;SDS011;10320;49.482;11.256;2023-05-15T05:44:58;10.87;;;9.83;;
20324;SDS011;10320;49.482;11.256;2023-05-15T05:47:24;10.83;;;9.83;;
20324;SDS011;10320;49.482;11.256;2023-05-15T05:49:50;12.00;;;10.90;;
20324;SDS011;10320;49.482;11.256;2023-05-15T05:52:17;11.17;;;10.17;;
20324;SDS011;10320;49.482;11.256;2023-05-15T05:54:43;12.00;;;10.90;;
20324;SDS011;10320;49.482;11.256;2023-05-15T05:57:11;12.57;;;11.37;;
20324;SDS011;10320;49.482;11.256;2023-05-15T05:59:38;12.63;;;11.30;;
20324;SDS011;10320;49.482;11.256;2023-05-15T06:02:04;13.40;;;12.00;;
20324;SDS011;10320;49.482;11.256;2023-05-15T06:04:31;13.20;;;11.70;;
20324;SDS011;10320;49.482;11.256;2023-05-15T06:06:58;15.50;;;13.90;;
20324;SDS011;10320;49.482;11.256;2023-05-15T06:09:24;14.13;;;12.83;;
20324;SDS011;10320;49.482;11.256;2023-05-15T06:11:50;14.47;;;13.07;;
20324;SDS011;10320;49.482;11.256;2023-05-15T06:14:16;14.37;;;12.97;;
20324;SDS011;10320;49.482;11.256;2023-05-15T06:16:42;13.90;;;12.50;;
20324;SDS011;10320;49.482;11.256;2023-05-15T06:19:08;14.23;;;12.73;;
20324;SDS011;10320;49.482;11.256;2023-05-15T06:21:34;13.43;;;12.23;;
20324;SDS011;10320;49.482;11.256;2023-05-15T06:24:00;13.03;;;11.83;;
20324;SDS011;10320;49.482;11.256;2023-05-15T06:26:26;13.37;;;12.17;;
20324;SDS011;10320;49.482;11.256;2023-05-15T06:28:52;14.00;;;12.27;;
20324;SDS011;10320;49.482;11.256;2023-05-15T06:31:18;13.83;;;12.53;;
20324;SDS011;10320;49.482;11.256;2023-05-15T06:33:45;14.13;;;12.83;;
20324;SDS011;10320;49.482;11.256;2023-05-15T06:36:11;14.20;;;12.80;;
20324;SDS011;10320;49.482;11.256;2023-05-15T06:38:37;13.00;;;11.70;;
20324;SDS011;10320;49.482;11.256;2023-05-15T06:41:03;13.97;;;12.67;;
20324;SDS011;10320;49.482;11.256;2023-05-15T06:43:30;13.30;;;12.07;;
20324;SDS011;10320;49.482;11.256;2023-05-15T06:45:56;13.17;;;11.97;;
20324;SDS011;10320;49.482;11.256;2023-05-15T06:48:22;13.30;;;12.10;;
20324;SDS011;10320;49.482;11.256;2023-05-15T06:50:48;12.03;;;10.90;;
20324;SDS011;10320;49.482;11.256;2023-05-15T06:53:14;11.90;;;10.90;;
20324;SDS011;10320;49.482;11.256;2023-05-15T06:55:41;12.90;;;11.60;;
20324;SDS011;10320;49.482;11.256;2023-05-15T06:58:08;12.20;;;11.07;;
20324;SDS011;10320;49.482;11.256;2023-05-15T07:00:33;10.83;;;9.87;;
20324;SDS011;10320;49.482;11.256;2023-05-15T07:02:59;10.17;;;9.17;;
20324;SDS011;10320;49.482;11.256;2023-05-15T07:05:25;10.50;;;9.43;;
20324;SDS011;10320;49.482;11.256;2023-05-15T07:07:51;9.47;;;8.67;;
20324;SDS011;10320;49.482;11.256;2023-05-15T07:10:18;10.00;;;9.17;;
20324;SDS011;10320;49.482;11.256;2023-05-15T07:12:44;10.83;;;9.73;;
20324;SDS011;10320;49.482;11.256;2023-05-15T07:15:10;9.97;;;9.10;;
20324;SDS011;10320;49.482;11.256;2023-05-15T07:17:36;10.17;;;9.33;;
20324;SDS011;10320;49.482;11.256;2023-05-15T07:20:02;10.60;;;9.70;;
20324;SDS011;10320;49.482;11.256;2023-05-15T07:22:30;10.27;;;9.37;;
20324;SDS011;10320;49.482;11.256;2023-05-15T07:24:56;10.23;;;9.20;;
20324;SDS011;10320;49.482;11.256;2023-05-15T07:27:22;9.43;;;8.60;;
20324;SDS011;10320;49.482;11.256;2023-05-15T07:29:48;9.87;;;9.07;;
20324;SDS011;10320;49.482;11.256;2023-05-15T07:32:14;9.43;;;8.63;;
20324;SDS011;10320;49.482;11.256;2023-05-15T07:34:40;9.37;;;8.57;;
20324;SDS011;10320;49.482;11.256;2023-05-15T07:37:06;8.40;;;7.43;;
20324;SDS011;10320;49.482;11.256;2023-05-15T07:39:32;8.83;;;8.10;;
20324;SDS011;10320;49.482;11.256;2023-05-15T07:41:58;6.57;;;5.97;;
20324;SDS011;10320;49.482;11.256;2023-05-15T07:44:24;6.37;;;5.90;;
20324;SDS011;10320;49.482;11.256;2023-05-15T07:46:50;6.73;;;6.23;;
20324;SDS011;10320;49.482;11.256;2023-05-15T07:49:16;6.60;;;6.07;;
20324;SDS011;10320;49.482;11.256;2023-05-15T07:51:42;6.40;;;5.90;;
20324;SDS011;10320;49.482;11.256;2023-05-15T07:54:09;6.87;;;6.20;;
20324;SDS011;10320;49.482;11.256;2023-05-15T07:56:35;5.90;;;5.40;;
20324;SDS011;10320;49.482;11.256;2023-05-15T07:59:01;6.47;;;5.90;;
20324;SDS011;10320;49.482;11.256;2023-05-15T08:01:27;5.77;;;5.17;;
20324;SDS011;10320;49.482;11.256;2023-05-15T08:03:53;6.13;;;5.60;;
20324;SDS011;10320;49.482;11.256;2023-05-15T08:06:19;5.53;;;5.10;;
20324;SDS011;10320;49.482;11.256;2023-05-15T08:08:45;5.23;;;4.83;;
20324;SDS011;10320;49.482;11.256;2023-05-15T08:11:11;5.00;;;4.53;;
20324;SDS011;10320;49.482;11.256;2023-05-15T08:13:37;5.35;;;4.75;;
20324;SDS011;10320;49.482;11.256;2023-05-15T08:16:04;5.27;;;4.83;;
20324;SDS011;10320;49.482;11.256;2023-05-15T08:18:30;5.40;;;4.90;;
20324;SDS011;10320;49.482;11.256;2023-05-15T08:20:56;4.90;;;4.50;;
20324;SDS011;10320;49.482;11.256;2023-05-15T08:23:22;5.47;;;4.97;;
20324;SDS011;10320;49.482;11.256;2023-05-15T08:25:48;5.80;;;5.10;;
20324;SDS011;10320;49.482;11.256;2023-05-15T08:28:14;5.40;;;4.97;;
20324;SDS011;10320;49.482;11.256;2023-05-15T08:30:40;5.57;;;5.07;;
20324;SDS011;10320;49.482;11.256;2023-05-15T08:33:06;5.87;;;5.27;;
20324;SDS011;10320;49.482;11.256;2023-05-15T08:35:32;5.50;;;5.00;;
20324;SDS011;10320;49.482;11.256;2023-05-15T08:37:58;5.40;;;4.90;;
20324;SDS011;10320;49.482;11.256;2023-05-15T08:40:24;5.53;;;5.03;;
20324;SDS011;10320;49.482;11.256;2023-05-15T08:42:54;5.67;;;4.87;;
20324;SDS011;10320;49.482;11.256;2023-05-15T08:45:20;5.70;;;5.20;;
20324;SDS011;10320;49.482;11.256;2023-05-15T08:47:46;5.17;;;4.77;;
20324;SDS011;10320;49.482;11.256;2023-05-15T08:50:13;5.33;;;4.93;;
20324;SDS011;10320;49.482;11.256;2023-05-15T08:52:40;5.73;;;5.23;;
20324;SDS011;10320;49.482;11.256;2023-05-15T08:55:07;5.93;;;5.43;;
20324;SDS011;10320;49.482;11.256;2023-05-15T08:57:33;6.07;;;5.47;;
20324;SDS011;10320;49.482;11.256;2023-05-15T09:00:00;5.60;;;5.20;;
20324;SDS011;10320;49.482;11.256;2023-05-15T09:02:28;5.25;;;4.85;;
20324;SDS011;10320;49.482;11.256;2023-05-15T09:04:55;4.72;;;4.32;;
20324;SDS011;10320;49.482;11.256;2023-05-15T09:07:21;4.65;;;4.30;;
20324;SDS011;10320;49.482;11.256;2023-05-15T09:09:47;5.20;;;4.80;;
20324;SDS011;10320;49.482;11.256;2023-05-15T09:12:13;5.00;;;4.60;;
20324;SDS011;10320;49.482;11.256;2023-05-15T09:14:40;4.50;;;4.20;;
20324;SDS011;10320;49.482;11.256;2023-05-15T09:17:09;4.90;;;4.50;;
20324;SDS011;10320;49.482;11.256;2023-05-15T09:19:37;5.53;;;4.55;;
20324;SDS011;10320;49.482;11.256;2023-05-15T09:22:13;4.27;;;3.93;;
20324;SDS011;10320;49.482;11.256;2023-05-15T09:24:47;4.70;;;4.30;;
20324;SDS011;10320;49.482;11.256;2023-05-15T09:27:15;4.33;;;3.90;;
20324;SDS011;10320;49.482;11.256;2023-05-15T09:29:41;4.32;;;3.92;;
20324;SDS011;10320;49.482;11.256;2023-05-15T09:32:11;4.10;;;3.80;;
20324;SDS011;10320;49.482;11.256;2023-05-15T09:34:39;4.60;;;4.20;;
20324;SDS011;10320;49.482;11.256;2023-05-15T09:37:06;4.93;;;4.53;;
20324;SDS011;10320;49.482;11.256;2023-05-15T09:39:43;5.18;;;4.72;;
20324;SDS011;10320;49.482;11.256;2023-05-15T09:42:10;4.60;;;4.30;;
20324;SDS011;10320;49.482;11.256;2023-05-15T09:44:39;4.87;;;4.47;;
20324;SDS011;10320;49.482;11.256;2023-05-15T09:47:05;4.83;;;4.43;;
20324;SDS011;10320;49.482;11.256;2023-05-15T09:49:31;4.37;;;4.07;;
20324;SDS011;10320;49.482;11.256;2023-05-15T09:51:58;4.40;;;4.10;;
20324;SDS011;10320;49.482;11.256;2023-05-15T09:54:24;4.30;;;4.00;;
20324;SDS011;10320;49.482;11.256;2023-05-15T09:56:51;4.40;;;4.10;;
20324;SDS011;10320;49.482;11.256;2023-05-15T09:59:18;4.10;;;3.72;;
20324;SDS011;10320;49.482;11.256;2023-05-15T10:01:47;3.28;;;3.05;;
20324;SDS011;10320;49.482;11.256;2023-05-15T10:04:15;4.10;;;3.70;;
20324;SDS011;10320;49.482;11.256;2023-05-15T10:06:42;4.60;;;4.15;;
20324;SDS011;10320;49.482;11.256;2023-05-15T10:09:10;4.00;;;3.70;;
20324;SDS011;10320;49.482;11.256;2023-05-15T10:11:38;4.63;;;4.22;;
20324;SDS011;10320;49.482;11.256;2023-05-15T10:14:07;4.05;;;3.75;;
20324;SDS011;10320;49.482;11.256;2023-05-15T10:16:35;4.05;;;3.75;;
20324;SDS011;10320;49.482;11.256;2023-05-15T10:19:08;4.78;;;4.32;;
20324;SDS011;10320;49.482;11.256;2023-05-15T10:21:36;3.80;;;3.50;;
20324;SDS011;10320;49.482;11.256;2023-05-15T10:24:03;4.40;;;4.10;;
20324;SDS011;10320;49.482;11.256;2023-05-15T10:29:09;4.55;;;4.15;;
20324;SDS011;10320;49.482;11.256;2023-05-15T10:31:35;5.60;;;4.20;;
20324;SDS011;10320;49.482;11.256;2023-05-15T10:34:01;4.57;;;4.28;;
20324;SDS011;10320;49.482;11.256;2023-05-15T10:36:31;4.82;;;4.43;;
20324;SDS011;10320;49.482;11.256;2023-05-15T10:38:59;3.90;;;3.60;;
20324;SDS011;10320;49.482;11.256;2023-05-15T10:41:26;3.95;;;3.65;;
20324;SDS011;10320;49.482;11.256;2023-05-15T10:43:54;3.47;;;3.17;;
20324;SDS011;10320;49.482;11.256;2023-05-15T10:46:23;2.90;;;2.70;;
20324;SDS011;10320;49.482;11.256;2023-05-15T10:48:49;3.17;;;2.90;;
20324;SDS011;10320;49.482;11.256;2023-05-15T10:51:17;3.40;;;3.10;;
20324;SDS011;10320;49.482;11.256;2023-05-15T10:53:47;3.30;;;3.00;;
20324;SDS011;10320;49.482;11.256;2023-05-15T10:56:14;2.92;;;2.72;;
20324;SDS011;10320;49.482;11.256;2023-05-15T10:58:44;2.75;;;2.55;;
20324;SDS011;10320;49.482;11.256;2023-05-15T11:01:35;2.72;;;2.53;;
20324;SDS011;10320;49.482;11.256;2023-05-15T11:04:04;3.45;;;2.72;;
20324;SDS011;10320;49.482;11.256;2023-05-15T11:06:41;4.97;;;3.10;;
20324;SDS011;10320;49.482;11.256;2023-05-15T11:14:24;3.80;;;3.50;;
20324;SDS011;10320;49.482;11.256;2023-05-15T11:24:56;3.72;;;3.40;;
20324;SDS011;10320;49.482;11.256;2023-05-15T11:27:31;3.80;;;3.50;;
20324;SDS011;10320;49.482;11.256;2023-05-15T11:30:19;3.78;;;3.47;;
20324;SDS011;10320;49.482;11.256;2023-05-15T11:35:34;4.07;;;3.78;;
20324;SDS011;10320;49.482;11.256;2023-05-15T11:38:00;3.83;;;3.53;;
20324;SDS011;10320;49.482;11.256;2023-05-15T11:40:58;3.55;;;3.25;;
20324;SDS011;10320;49.482;11.256;2023-05-15T11:43:30;3.28;;;3.08;;
20324;SDS011;10320;49.482;11.256;2023-05-15T11:46:00;3.67;;;3.33;;
20324;SDS011;10320;49.482;11.256;2023-05-15T11:48:39;3.80;;;3.50;;
20324;SDS011;10320;49.482;11.256;2023-05-15T11:51:19;3.85;;;3.53;;
20324;SDS011;10320;49.482;11.256;2023-05-15T11:53:48;3.65;;;3.35;;
20324;SDS011;10320;49.482;11.256;2023-05-15T11:56:22;3.63;;;3.25;;
20324;SDS011;10320;49.482;11.256;2023-05-15T11:58:50;4.03;;;3.63;;
20324;SDS011;10320;49.482;11.256;2023-05-15T12:01:19;3.88;;;3.58;;
20324;SDS011;10320;49.482;11.256;2023-05-15T12:03:47;4.30;;;4.00;;
20324;SDS011;10320;49.482;11.256;2023-05-15T12:06:14;4.00;;;3.70;;
20324;SDS011;10320;49.482;11.256;2023-05-15T12:08:40;3.65;;;3.35;;
20324;SDS011;10320;49.482;11.256;2023-05-15T12:11:06;3.80;;;3.50;;
20324;SDS011;10320;49.482;11.256;2023-05-15T12:13:32;3.60;;;3.30;;
20324;SDS011;10320;49.482;11.256;2023-05-15T12:16:02;3.95;;;3.65;;
20324;SDS011;10320;49.482;11.256;2023-05-15T12:18:31;4.10;;;3.72;;
20324;SDS011;10320;49.482;11.256;2023-05-15T12:20:57;4.00;;;3.70;;
20324;SDS011;10320;49.482;11.256;2023-05-15T12:23:24;4.13;;;3.83;;
20324;SDS011;10320;49.482;11.256;2023-05-15T12:25:53;4.10;;;3.80;;
20324;SDS011;10320;49.482;11.256;2023-05-15T12:28:22;4.05;;;3.75;;
20324;SDS011;10320;49.482;11.256;2023-05-15T12:30:48;4.03;;;3.72;;
20324;SDS011;10320;49.482;11.256;2023-05-15T12:33:14;4.15;;;3.85;;
20324;SDS011;10320;49.482;11.256;2023-05-15T12:35:41;4.03;;;3.58;;
20324;SDS011;10320;49.482;11.256;2023-05-15T12:38:08;4.00;;;3.60;;
20324;SDS011;10320;49.482;11.256;2023-05-15T12:40:39;4.10;;;3.70;;
20324;SDS011;10320;49.482;11.256;2023-05-15T12:43:06;4.28;;;3.97;;
20324;SDS011;10320;49.482;11.256;2023-05-15T12:45:32;4.05;;;3.75;;
20324;SDS011;10320;49.482;11.256;2023-05-15T12:48:01;3.95;;;3.63;;
20324;SDS011;10320;49.482;11.256;2023-05-15T12:50:27;5.03;;;3.97;;
20324;SDS011;10320;49.482;11.256;2023-05-15T12:53:00;4.68;;;4.30;;
20324;SDS011;10320;49.482;11.256;2023-05-15T12:55:27;4.35;;;3.95;;
20324;SDS011;10320;49.482;11.256;2023-05-15T12:57:56;5.15;;;4.63;;
20324;SDS011;10320;49.482;11.256;2023-05-15T13:00:23;4.80;;;4.40;;
20324;SDS011;10320;49.482;11.256;2023-05-15T13:02:50;4.35;;;3.95;;
20324;SDS011;10320;49.482;11.256;2023-05-15T13:05:17;4.32;;;3.92;;
20324;SDS011;10320;49.482;11.256;2023-05-15T13:07:43;5.30;;;4.30;;
20324;SDS011;10320;49.482;11.256;2023-05-15T13:10:10;4.10;;;3.80;;
20324;SDS011;10320;49.482;11.256;2023-05-15T13:12:37;4.38;;;3.97;;
20324;SDS011;10320;49.482;11.256;2023-05-15T13:15:04;4.35;;;4.05;;
20324;SDS011;10320;49.482;11.256;2023-05-15T13:17:31;4.35;;;4.05;;
20324;SDS011;10320;49.482;11.256;2023-05-15T13:19:58;5.40;;;4.90;;
20324;SDS011;10320;49.482;11.256;2023-05-15T13:22:24;5.05;;;4.55;;
20324;SDS011;10320;49.482;11.256;2023-05-15T13:24:51;5.10;;;4.65;;
20324;SDS011;10320;49.482;11.256;2023-05-15T13:27:17;4.47;;;4.07;;
20324;SDS011;10320;49.482;11.256;2023-05-15T13:29:44;3.75;;;3.47;;
20324;SDS011;10320;49.482;11.256;2023-05-15T13:32:10;4.18;;;3.88;;
20324;SDS011;10320;49.482;11.256;2023-05-15T13:34:36;4.30;;;3.90;;
20324;SDS011;10320;49.482;11.256;2023-05-15T13:37:02;4.15;;;3.75;;
20324;SDS011;10320;49.482;11.256;2023-05-15T13:39:28;3.75;;;3.45;;
20324;SDS011;10320;49.482;11.256;2023-05-15T13:41:54;3.83;;;3.53;;
20324;SDS011;10320;49.482;11.256;2023-05-15T13:44:20;3.78;;;3.47;;
20324;SDS011;10320;49.482;11.256;2023-05-15T13:46:46;4.25;;;3.88;;
20324;SDS011;10320;49.482;11.256;2023-05-15T13:49:12;3.85;;;3.55;;
20324;SDS011;10320;49.482;11.256;2023-05-15T13:51:38;3.88;;;3.58;;
20324;SDS011;10320;49.482;11.256;2023-05-15T13:54:04;4.10;;;3.70;;
20324;SDS011;10320;49.482;11.256;2023-05-15T13:56:30;3.83;;;3.50;;
20324;SDS011;10320;49.482;11.256;2023-05-15T13:58:56;3.63;;;3.42;;
20324;SDS011;10320;49.482;11.256;2023-05-15T14:01:22;3.78;;;3.47;;
20324;SDS011;10320;49.482;11.256;2023-05-15T14:03:49;3.95;;;3.65;;
20324;SDS011;10320;49.482;11.256;2023-05-15T14:06:15;4.47;;;4.07;;
20324;SDS011;10320;49.482;11.256;2023-05-15T14:08:41;4.25;;;3.80;;
20324;SDS011;10320;49.482;11.256;2023-05-15T14:11:07;4.03;;;3.72;;
20324;SDS011;10320;49.482;11.256;2023-05-15T14:13:34;5.53;;;4.78;;
20324;SDS011;10320;49.482;11.256;2023-05-15T14:16:00;5.10;;;4.70;;
20324;SDS011;10320;49.482;11.256;2023-05-15T14:18:26;5.05;;;4.60;;
20324;SDS011;10320;49.482;11.256;2023-05-15T14:20:52;5.80;;;4.53;;
20324;SDS011;10320;49.482;11.256;2023-05-15T14:23:18;5.00;;;4.60;;
20324;SDS011;10320;49.482;11.256;2023-05-15T14:25:44;4.72;;;4.32;;
20324;SDS011;10320;49.482;11.256;2023-05-15T14:28:10;4.68;;;4.30;;
20324;SDS011;10320;49.482;11.256;2023-05-15T14:30:37;4.45;;;3.85;;
20324;SDS011;10320;49.482;11.256;2023-05-15T14:33:03;4.30;;;3.90;;
20324;SDS011;10320;49.482;11.256;2023-05-15T14:35:28;4.20;;;3.90;;
20324;SDS011;10320;49.482;11.256;2023-05-15T14:37:54;4.15;;;3.75;;
20324;SDS011;10320;49.482;11.256;2023-05-15T14:40:20;4.05;;;3.75;;
20324;SDS011;10320;49.482;11.256;2023-05-15T14:42:46;4.28;;;3.88;;
20324;SDS011;10320;49.482;11.256;2023-05-15T14:45:11;5.22;;;3.60;;
20324;SDS011;10320;49.482;11.256;2023-05-15T14:47:37;3.97;;;3.50;;
20324;SDS011;10320;49.482;11.256;2023-05-15T14:50:03;3.95;;;3.65;;
20324;SDS011;10320;49.482;11.256;2023-05-15T14:52:29;3.65;;;3.38;;
20324;SDS011;10320;49.482;11.256;2023-05-15T14:54:56;4.13;;;3.72;;
20324;SDS011;10320;49.482;11.256;2023-05-15T14:57:22;4.13;;;3.83;;
20324;SDS011;10320;49.482;11.256;2023-05-15T14:59:47;4.00;;;3.70;;
20324;SDS011;10320;49.482;11.256;2023-05-15T15:02:13;4.00;;;3.58;;
20324;SDS011;10320;49.482;11.256;2023-05-15T15:04:39;4.05;;;3.40;;